sensor_id;sensor_type;location;lat;lon;timestamp;pressure;altitude;pressure_sealevel;temperature;humidity
38253;BME280;24785;52.372;20.672;2023-04-02T00:23:12;99781.19;;;5.73;100.00
38253;BME280;24785;52.372;20.672;2023-04-02T00:33:21;99781.16;;;5.30;100.00
38253;BME280;24785;52.372;20.672;2023-04-02T00:43:25;99764.31;;;5.20;100.00
38253;BME280;24785;52.372;20.672;2023-04-02T00:53:28;99776.66;;;5.04;100.00
38253;BME280;24785;52.372;20.672;2023-04-02T01:03:34;99775.84;;;5.03;100.00
38253;BME280;24785;52.372;20.672;2023-04-02T01:13:40;99793.44;;;5.10;100.00
38253;BME280;24785;52.372;20.672;2023-04-02T01:34:03;99815.53;;;5.15;100.00
38253;BME280;24785;52.372;20.672;2023-04-02T01:44:12;99822.84;;;5.03;100.00
38253;BME280;24785;52.372;20.672;2023-04-02T01:54:15;99822.50;;;4.94;100.00
38253;BME280;24785;52.372;20.672;2023-04-02T02:04:17;99836.53;;;4.90;100.00
38253;BME280;24785;52.372;20.672;2023-04-02T02:14:21;99845.50;;;4.84;100.00
38253;BME280;24785;52.372;20.672;2023-04-02T02:34:31;99844.41;;;4.80;100.00
38253;BME280;24785;52.372;20.672;2023-04-02T02:44:38;99856.63;;;4.81;100.00
38253;BME280;24785;52.372;20.672;2023-04-02T02:54:43;99857.97;;;4.83;100.00
38253;BME280;24785;52.372;20.672;2023-04-02T03:04:50;99859.63;;;4.67;100.00
38253;BME280;24785;52.372;20.672;2023-04-02T03:14:59;99877.34;;;4.62;100.00
38253;BME280;24785;52.372;20.672;2023-04-02T03:35:18;99887.34;;;4.33;100.00
38253;BME280;24785;52.372;20.672;2023-04-02T03:45:25;99890.81;;;4.17;100.00
38253;BME280;24785;52.372;20.672;2023-04-02T03:55:35;99924.13;;;4.07;100.00
38253;BME280;24785;52.372;20.672;2023-04-02T04:05:44;99921.56;;;3.96;100.00
38253;BME280;24785;52.372;20.672;2023-04-02T04:15:57;99933.78;;;3.80;100.00
38253;BME280;24785;52.372;20.672;2023-04-02T04:26:04;99938.09;;;3.69;100.00
38253;BME280;24785;52.372;20.672;2023-04-02T04:36:21;99957.97;;;3.55;100.00
38253;BME280;24785;52.372;20.672;2023-04-02T04:46:34;99966.97;;;3.54;100.00
38253;BME280;24785;52.372;20.672;2023-04-02T04:56:38;99996.25;;;3.47;100.00
38253;BME280;24785;52.372;20.672;2023-04-02T05:07:06;100004.97;;;3.31;100.00
38253;BME280;24785;52.372;20.672;2023-04-02T05:17:18;100017.16;;;3.32;100.00
38253;BME280;24785;52.372;20.672;2023-04-02T05:27:34;100033.41;;;3.24;100.00
38253;BME280;24785;52.372;20.672;2023-04-02T05:37:38;100058.03;;;3.25;100.00
38253;BME280;24785;52.372;20.672;2023-04-02T05:47:39;100070.28;;;3.14;100.00
38253;BME280;24785;52.372;20.672;2023-04-02T05:57:49;100065.34;;;3.06;100.00
38253;BME280;24785;52.372;20.672;2023-04-02T06:18:22;100134.53;;;2.98;100.00
38253;BME280;24785;52.372;20.672;2023-04-02T06:28:26;100156.59;;;2.80;100.00
38253;BME280;24785;52.372;20.672;2023-04-02T06:38:31;100186.88;;;2.84;100.00
38253;BME280;24785;52.372;20.672;2023-04-02T06:48:32;100198.34;;;2.78;100.00
38253;BME280;24785;52.372;20.672;2023-04-02T06:58:35;100212.94;;;2.69;100.00
38253;BME280;24785;52.372;20.672;2023-04-02T07:08:37;100211.56;;;2.66;100.00
38253;BME280;24785;52.372;20.672;2023-04-02T07:18:39;100224.09;;;2.71;100.00
38253;BME280;24785;52.372;20.672;2023-04-02T07:28:41;100225.50;;;2.73;100.00
38253;BME280;24785;52.372;20.672;2023-04-02T07:38:42;100242.97;;;2.74;100.00
38253;BME280;24785;52.372;20.672;2023-04-02T07:48:44;100268.41;;;2.75;100.00
38253;BME280;24785;52.372;20.672;2023-04-02T07:58:46;100276.78;;;2.72;100.00
38253;BME280;24785;52.372;20.672;2023-04-02T08:08:48;100293.44;;;2.61;100.00
38253;BME280;24785;52.372;20.672;2023-04-02T08:18:49;100301.25;;;2.56;100.00
38253;BME280;24785;52.372;20.672;2023-04-02T08:28:50;100310.84;;;2.69;100.00
38253;BME280;24785;52.372;20.672;2023-04-02T08:38:51;100326.53;;;2.82;100.00
38253;BME280;24785;52.372;20.672;2023-04-02T08:48:55;100345.34;;;2.44;100.00
38253;BME280;24785;52.372;20.672;2023-04-02T08:59:00;100354.59;;;2.53;100.00
38253;BME280;24785;52.372;20.672;2023-04-02T09:09:02;100370.38;;;2.60;100.00
38253;BME280;24785;52.372;20.672;2023-04-02T09:19:22;100378.38;;;2.71;100.00
38253;BME280;24785;52.372;20.672;2023-04-02T09:29:38;100398.81;;;2.64;100.00
38253;BME280;24785;52.372;20.672;2023-04-02T09:39:40;100392.78;;;2.57;100.00
38253;BME280;24785;52.372;20.672;2023-04-02T09:49:41;100390.56;;;2.91;100.00
38253;BME280;24785;52.372;20.672;2023-04-02T09:59:42;100401.16;;;2.91;100.00
38253;BME280;24785;52.372;20.672;2023-04-02T10:09:42;100412.31;;;2.93;100.00
38253;BME280;24785;52.372;20.672;2023-04-02T10:19:51;100420.19;;;2.63;100.00
38253;BME280;24785;52.372;20.672;2023-04-02T10:40:08;100441.47;;;2.31;100.00
38253;BME280;24785;52.372;20.672;2023-04-02T10:50:32;100434.47;;;2.43;100.00
38253;BME280;24785;52.372;20.672;2023-04-02T11:00:39;100445.41;;;2.65;100.00
38253;BME280;24785;52.372;20.672;2023-04-02T11:10:45;100449.66;;;2.66;100.00
38253;BME280;24785;52.372;20.672;2023-04-02T11:30:48;100491.38;;;2.89;100.00
38253;BME280;24785;52.372;20.672;2023-04-02T11:54:22;100536.03;;;2.79;100.00
38253;BME280;24785;52.372;20.672;2023-04-02T12:24:36;100569.84;;;2.77;100.00
38253;BME280;24785;52.372;20.672;2023-04-02T12:34:44;100577.25;;;2.68;100.00
38253;BME280;24785;52.372;20.672;2023-04-02T12:44:49;100586.28;;;2.86;100.00
38253;BME280;24785;52.372;20.672;2023-04-02T12:54:52;100616.03;;;2.81;100.00
38253;BME280;24785;52.372;20.672;2023-04-02T13:04:58;100622.84;;;2.70;100.00
38253;BME280;24785;52.372;20.672;2023-04-02T13:15:03;100653.47;;;2.84;100.00
38253;BME280;24785;52.372;20.672;2023-04-02T13:25:05;100667.31;;;2.80;100.00
38253;BME280;24785;52.372;20.672;2023-04-02T13:35:06;100692.28;;;2.66;100.00
38253;BME280;24785;52.372;20.672;2023-04-02T13:55:22;100701.88;;;2.60;100.00
38253;BME280;24785;52.372;20.672;2023-04-02T14:36:21;100749.13;;;2.18;100.00
38253;BME280;24785;52.372;20.672;2023-04-02T14:46:25;100743.22;;;2.16;100.00
38253;BME280;24785;52.372;20.672;2023-04-02T14:56:26;100737.00;;;1.98;100.00
38253;BME280;24785;52.372;20.672;2023-04-02T15:06:36;100729.28;;;1.96;100.00
38253;BME280;24785;52.372;20.672;2023-04-02T15:16:42;100735.75;;;2.07;100.00
38253;BME280;24785;52.372;20.672;2023-04-02T15:26:58;100730.41;;;2.20;100.00
38253;BME280;24785;52.372;20.672;2023-04-02T15:37:34;100729.66;;;2.06;100.00
38253;BME280;24785;52.372;20.672;2023-04-02T15:47:42;100724.53;;;2.11;100.00
38253;BME280;24785;52.372;20.672;2023-04-02T15:58:23;100743.03;;;2.11;100.00
38253;BME280;24785;52.372;20.672;2023-04-02T16:18:48;100771.53;;;2.09;100.00
38253;BME280;24785;52.372;20.672;2023-04-02T16:39:16;100787.34;;;2.16;100.00
38253;BME280;24785;52.372;20.672;2023-04-02T17:10:22;100808.91;;;2.19;100.00
38253;BME280;24785;52.372;20.672;2023-04-02T17:20:25;100817.44;;;2.21;100.00
38253;BME280;24785;52.372;20.672;2023-04-02T17:30:36;100837.56;;;2.22;100.00
38253;BME280;24785;52.372;20.672;2023-04-02T17:40:47;100841.81;;;2.30;100.00
38253;BME280;24785;52.372;20.672;2023-04-02T17:50:57;100819.41;;;2.46;100.00
38253;BME280;24785;52.372;20.672;2023-04-02T18:33:25;100899.53;;;2.53;100.00
38253;BME280;24785;52.372;20.672;2023-04-02T18:52:55;100946.38;;;2.39;100.00
38253;BME280;24785;52.372;20.672;2023-04-02T19:03:30;100990.13;;;2.29;100.00
38253;BME280;24785;52.372;20.672;2023-04-02T19:13:32;101011.06;;;2.24;100.00
38253;BME280;24785;52.372;20.672;2023-04-02T19:34:39;101102.22;;;2.54;100.00
38253;BME280;24785;52.372;20.672;2023-04-02T19:44:45;101120.53;;;2.62;100.00
38253;BME280;24785;52.372;20.672;2023-04-02T19:54:46;101124.63;;;2.65;100.00
38253;BME280;24785;52.372;20.672;2023-04-02T20:04:47;101135.19;;;2.65;100.00
38253;BME280;24785;52.372;20.672;2023-04-02T20:14:48;101149.63;;;2.82;100.00
38253;BME280;24785;52.372;20.672;2023-04-02T20:24:49;101160.44;;;2.80;100.00
38253;BME280;24785;52.372;20.672;2023-04-02T20:34:50;101179.78;;;2.88;99.35
38253;BME280;24785;52.372;20.672;2023-04-02T20:44:51;101185.88;;;2.75;94.80
38253;BME280;24785;52.372;20.672;2023-04-02T20:54:52;101200.75;;;2.69;91.33
38253;BME280;24785;52.372;20.672;2023-04-02T21:04:52;101208.06;;;2.74;85.46
38253;BME280;24785;52.372;20.672;2023-04-02T21:14:53;101220.28;;;2.62;82.19
38253;BME280;24785;52.372;20.672;2023-04-02T21:24:57;101215.56;;;2.37;82.53
38253;BME280;24785;52.372;20.672;2023-04-02T21:34:58;101228.34;;;2.27;81.13
38253;BME280;24785;52.372;20.672;2023-04-02T21:44:59;101242.16;;;2.22;79.35
38253;BME280;24785;52.372;20.672;2023-04-02T21:55:01;101238.44;;;2.10;80.53
38253;BME280;24785;52.372;20.672;2023-04-02T22:05:03;101254.50;;;2.02;79.68
38253;BME280;24785;52.372;20.672;2023-04-02T22:15:04;101274.59;;;1.97;78.50
38253;BME280;24785;52.372;20.672;2023-04-02T22:25:05;101292.34;;;1.75;80.54
38253;BME280;24785;52.372;20.672;2023-04-02T22:35:07;101291.81;;;1.51;80.83
38253;BME280;24785;52.372;20.672;2023-04-02T22:45:08;101299.16;;;1.35;80.00
38253;BME280;24785;52.372;20.672;2023-04-02T22:55:11;101278.41;;;0.82;82.32
38253;BME280;24785;52.372;20.672;2023-04-02T23:05:14;101307.03;;;1.00;81.86
38253;BME280;24785;52.372;20.672;2023-04-02T23:15:15;101316.84;;;0.70;83.73
38253;BME280;24785;52.372;20.672;2023-04-02T23:25:16;101327.22;;;0.72;82.08
38253;BME280;24785;52.372;20.672;2023-04-02T23:35:17;101325.06;;;0.60;81.90
38253;BME280;24785;52.372;20.672;2023-04-02T23:45:18;101344.19;;;0.48;82.12
38253;BME280;24785;52.372;20.672;2023-04-02T23:55:19;101340.72;;;0.47;79.72
